Time;durP1;ratioP1;P1;durP2;ratioP2;P2;SDS_P1;SDS_P2;PMS_P1;PMS_P2;Temp;Humidity;BMP_temperature;BMP_pressure;BME280_temperature;BME280_humidity;BME280_pressure;Samples;Min_cycle;Max_cycle;Signal;HPM_P1;HPM_P2
2022/03/17 00:00:35;;;;;;;25.50;22.95;;;9.70;99.90;;;;;;5049327;28;20275;-61
2022/03/17 00:03:05;;;;;;;30.08;27.10;;;9.70;99.90;;;;;;5048690;28;20243;-61
2022/03/17 00:05:32;;;;;;;28.02;25.42;;;9.70;99.90;;;;;;5051281;28;20203;-61
2022/03/17 00:08:00;;;;;;;25.88;23.38;;;9.60;99.90;;;;;;5051057;28;20236;-61
2022/03/17 00:10:28;;;;;;;25.65;23.25;;;9.60;99.90;;;;;;5051379;28;20220;-61
2022/03/17 00:12:58;;;;;;;28.90;26.10;;;9.70;99.90;;;;;;5050830;28;20682;-61
2022/03/17 00:15:26;;;;;;;26.33;23.92;;;9.90;99.90;;;;;;5050351;28;20703;-61
2022/03/17 00:17:53;;;;;;;30.15;27.25;;;10.00;99.90;;;;;;5050464;28;20313;-61
2022/03/17 00:20:23;;;;;;;30.92;27.80;;;9.90;99.90;;;;;;5051200;28;20192;-61
2022/03/17 00:22:51;;;;;;;31.92;28.90;;;9.80;99.90;;;;;;5048316;28;20711;-61
2022/03/17 00:25:19;;;;;;;29.88;26.95;;;9.80;99.90;;;;;;5048764;28;20275;-61
2022/03/17 00:27:47;;;;;;;28.77;25.92;;;9.70;99.90;;;;;;5055321;28;20226;-62
2022/03/17 00:30:16;;;;;;;28.02;25.38;;;9.80;99.90;;;;;;5049661;28;20275;-61
2022/03/17 00:32:44;;;;;;;27.58;25.00;;;9.80;99.90;;;;;;5049606;28;20263;-62
2022/03/17 00:37:57;;;;;;;25.42;23.05;;;9.70;99.90;;;;;;5048797;28;20308;-61
2022/03/17 00:40:25;;;;;;;28.33;25.60;;;9.80;99.90;;;;;;5049355;28;20302;-61
2022/03/17 00:42:54;;;;;;;26.25;23.77;;;9.80;99.90;;;;;;5047623;28;20282;-62
2022/03/17 00:45:23;;;;;;;28.42;25.48;;;9.70;99.90;;;;;;5049970;28;20298;-62
2022/03/17 00:47:51;;;;;;;32.75;29.17;;;9.70;99.90;;;;;;5049785;28;20228;-61
2022/03/17 00:50:19;;;;;;;29.40;26.80;;;9.70;99.90;;;;;;5049819;28;20218;-61
2022/03/17 00:52:48;;;;;;;32.50;29.48;;;9.70;99.90;;;;;;5049670;28;20262;-62
2022/03/17 00:55:16;;;;;;;32.28;29.15;;;9.70;99.90;;;;;;5049024;28;20290;-61
2022/03/17 00:57:44;;;;;;;30.48;27.58;;;9.60;99.90;;;;;;5048838;28;20283;-60
2022/03/17 01:00:14;;;;;;;28.45;25.60;;;9.60;99.90;;;;;;5054042;28;20753;-60
2022/03/17 01:02:44;;;;;;;32.47;29.42;;;9.70;99.90;;;;;;5048506;28;20231;-61
2022/03/17 01:05:13;;;;;;;33.65;30.40;;;9.70;99.90;;;;;;5049480;28;20239;-61
2022/03/17 01:07:41;;;;;;;32.58;29.33;;;9.80;99.90;;;;;;5048804;28;20231;-61
2022/03/17 01:10:11;;;;;;;28.27;25.65;;;9.90;99.90;;;;;;5048051;28;20224;-61
2022/03/17 01:12:39;;;;;;;31.38;28.40;;;10.00;99.90;;;;;;5048326;28;20717;-60
2022/03/17 01:15:08;;;;;;;31.08;28.02;;;9.90;99.90;;;;;;5049466;28;20230;-61
2022/03/17 01:17:37;;;;;;;33.22;29.70;;;9.90;99.90;;;;;;5050452;28;20314;-61
2022/03/17 01:20:08;;;;;;;31.73;28.80;;;9.90;99.90;;;;;;5051208;28;20331;-61
2022/03/17 01:22:36;;;;;;;32.70;29.67;;;9.90;99.90;;;;;;5054241;28;20723;-61
2022/03/17 01:25:05;;;;;;;26.90;24.40;;;10.00;99.90;;;;;;5053289;28;21111;-60
2022/03/17 01:27:34;;;;;;;33.53;30.42;;;9.90;99.90;;;;;;5052071;28;20200;-62
2022/03/17 01:30:03;;;;;;;31.63;28.80;;;9.80;99.90;;;;;;5053931;28;20192;-62
2022/03/17 01:32:32;;;;;;;29.08;26.27;;;9.90;99.90;;;;;;5052895;28;20216;-61
2022/03/17 01:35:01;;;;;;;32.35;29.40;;;9.90;99.90;;;;;;5051307;28;20220;-61
2022/03/17 01:37:30;;;;;;;31.60;28.70;;;9.90;99.90;;;;;;5052925;28;20215;-61
2022/03/17 01:39:58;;;;;;;32.17;29.23;;;9.90;99.90;;;;;;5051405;28;20242;-60
2022/03/17 01:42:26;;;;;;;35.55;31.90;;;9.70;99.90;;;;;;5052343;28;20274;-61
2022/03/17 01:44:55;;;;;;;30.48;27.67;;;9.60;99.90;;;;;;5053017;28;20570;-62
2022/03/17 01:47:29;;;;;;;32.25;29.15;;;9.60;99.90;;;;;;5051903;28;20204;-61
2022/03/17 01:49:58;;;;;;;33.40;30.40;;;9.60;99.90;;;;;;5053084;28;20216;-62
2022/03/17 01:52:27;;;;;;;34.42;31.15;;;9.60;99.90;;;;;;5047503;28;20251;-61
2022/03/17 01:54:57;;;;;;;34.28;30.95;;;9.60;99.90;;;;;;5051761;28;20215;-61
2022/03/17 01:57:25;;;;;;;32.58;29.58;;;9.60;99.90;;;;;;5048669;28;20236;-61
2022/03/17 01:59:54;;;;;;;34.65;31.13;;;9.60;99.90;;;;;;5053416;28;20314;-61
2022/03/17 02:02:22;;;;;;;34.17;30.88;;;9.80;99.90;;;;;;5051408;28;20251;-61
2022/03/17 02:04:50;;;;;;;34.17;30.92;;;9.80;99.90;;;;;;5050510;28;20251;-62
2022/03/17 02:07:19;;;;;;;29.70;27.00;;;9.90;99.90;;;;;;5046452;28;20278;-61
2022/03/17 02:09:48;;;;;;;32.53;29.35;;;9.90;99.90;;;;;;5049717;28;20230;-62
2022/03/17 02:15:06;;;;;;;33.63;30.40;;;9.70;99.90;;;;;;5051539;28;20238;-61
2022/03/17 02:17:39;;;;;;;34.80;31.40;;;9.70;99.90;;;;;;5052478;28;20207;-61
2022/03/17 02:20:12;;;;;;;34.28;30.98;;;9.60;99.90;;;;;;5051746;28;20211;-61
2022/03/17 02:22:43;;;;;;;33.67;30.38;;;9.60;99.90;;;;;;5052293;28;20220;-61
2022/03/17 02:27:59;;;;;;;32.53;29.50;;;9.50;99.90;;;;;;5045372;28;20291;-61
2022/03/17 02:30:27;;;;;;;29.70;27.02;;;9.40;99.90;;;;;;5052126;28;20223;-62
2022/03/17 02:33:00;;;;;;;34.22;31.08;;;9.50;99.90;;;;;;5051453;28;20310;-62
2022/03/17 02:35:28;;;;;;;35.70;32.15;;;9.50;99.90;;;;;;5053122;28;20273;-63
2022/03/17 02:37:58;;;;;;;34.65;31.52;;;9.40;99.90;;;;;;5050981;28;20292;-61
2022/03/17 02:40:27;;;;;;;34.08;30.73;;;9.60;99.90;;;;;;5050144;28;20623;-61
2022/03/17 02:42:57;;;;;;;31.92;29.00;;;9.50;99.90;;;;;;5051673;28;20311;-61
2022/03/17 02:45:25;;;;;;;32.20;29.10;;;9.50;99.90;;;;;;5052736;28;20204;-61
2022/03/17 02:47:53;;;;;;;35.88;32.55;;;9.50;99.90;;;;;;5051215;28;20295;-61
2022/03/17 02:50:21;;;;;;;34.67;31.45;;;9.40;99.90;;;;;;5052469;28;20633;-62
2022/03/17 02:52:49;;;;;;;28.98;26.23;;;9.40;99.90;;;;;;5051259;28;20786;-61
2022/03/17 02:55:17;;;;;;;34.67;31.35;;;9.60;99.90;;;;;;5051008;28;20623;-61
2022/03/17 02:57:47;;;;;;;36.45;32.95;;;9.60;99.90;;;;;;5057052;28;20675;-61
2022/03/17 03:00:16;;;;;;;31.92;28.95;;;9.70;99.90;;;;;;5055392;28;20248;-62
2022/03/17 03:02:45;;;;;;;35.05;31.70;;;9.70;99.90;;;;;;5050251;28;20259;-61
2022/03/17 03:05:18;;;;;;;34.63;31.42;;;9.80;99.90;;;;;;5051662;28;20195;-62
2022/03/17 03:07:47;;;;;;;34.95;31.50;;;9.80;99.90;;;;;;5051241;28;20251;-62
2022/03/17 03:10:15;;;;;;;35.75;32.40;;;9.80;99.90;;;;;;5050966;28;20200;-61
2022/03/17 03:12:43;;;;;;;35.20;31.60;;;9.80;99.90;;;;;;5051132;28;20298;-61
2022/03/17 03:15:12;;;;;;;36.53;33.10;;;9.70;99.90;;;;;;5051490;28;20228;-62
2022/03/17 03:17:41;;;;;;;35.33;32.03;;;9.70;99.90;;;;;;5050974;28;20707;-61
2022/03/17 03:20:10;;;;;;;36.47;33.08;;;9.60;99.90;;;;;;5047412;28;20211;-61
2022/03/17 03:22:39;;;;;;;33.67;30.45;;;9.60;99.90;;;;;;5050842;28;20223;-61
2022/03/17 03:25:09;;;;;;;34.50;31.30;;;9.60;99.90;;;;;;5050574;28;20196;-62
2022/03/17 03:27:39;;;;;;;32.85;29.85;;;9.70;99.90;;;;;;5052358;28;20246;-62
2022/03/17 03:30:09;;;;;;;35.08;31.55;;;9.80;99.90;;;;;;5049170;28;20200;-61
2022/03/17 03:32:39;;;;;;;36.50;33.00;;;9.80;99.90;;;;;;5050206;28;20319;-61
2022/03/17 03:37:50;;;;;;;30.20;27.30;;;9.60;99.90;;;;;;5047911;28;20236;-61
2022/03/17 03:40:18;;;;;;;33.75;30.55;;;9.70;99.90;;;;;;5048673;28;20351;-62
2022/03/17 03:42:47;;;;;;;36.03;32.35;;;9.80;99.90;;;;;;5050044;28;20242;-61
2022/03/17 03:45:15;;;;;;;32.45;29.45;;;9.80;99.90;;;;;;5050229;28;20740;-62
2022/03/17 03:47:44;;;;;;;34.25;31.02;;;9.80;99.90;;;;;;5047852;28;20200;-61
2022/03/17 03:50:12;;;;;;;34.65;31.45;;;9.80;99.90;;;;;;5051927;28;20204;-61
2022/03/17 03:52:40;;;;;;;31.25;28.35;;;9.90;99.90;;;;;;5048635;28;20307;-61
2022/03/17 03:55:09;;;;;;;32.40;29.38;;;9.90;99.90;;;;;;5049446;28;20286;-61
2022/03/17 03:57:37;;;;;;;33.20;30.00;;;10.00;99.90;;;;;;5058299;28;20613;-61
2022/03/17 04:00:15;;;;;;;34.72;31.40;;;10.00;99.90;;;;;;5046303;28;20635;-60
2022/03/17 04:02:44;;;;;;;33.65;30.52;;;9.80;99.90;;;;;;5046671;28;20322;-61
2022/03/17 04:05:13;;;;;;;33.50;30.35;;;9.80;99.90;;;;;;5051443;28;20212;-61
2022/03/17 04:07:41;;;;;;;36.60;33.10;;;9.80;99.90;;;;;;5050535;28;20628;-61
2022/03/17 04:10:09;;;;;;;36.05;32.75;;;9.70;99.90;;;;;;5050067;28;20287;-61
2022/03/17 04:12:37;;;;;;;35.85;32.38;;;9.70;99.90;;;;;;5048914;28;20319;-61
2022/03/17 04:15:06;;;;;;;35.10;31.60;;;9.60;99.90;;;;;;5049479;28;20275;-61
2022/03/17 04:17:34;;;;;;;35.35;31.98;;;9.70;99.90;;;;;;5050266;28;20196;-61
2022/03/17 04:20:05;;;;;;;32.67;29.58;;;9.60;99.90;;;;;;5050368;28;20192;-61
2022/03/17 04:22:33;;;;;;;35.92;32.60;;;9.70;99.90;;;;;;5048792;28;20315;-62
2022/03/17 04:25:01;;;;;;;38.45;34.45;;;9.70;99.90;;;;;;5049461;28;20231;-62
2022/03/17 04:27:29;;;;;;;34.75;31.52;;;9.60;99.90;;;;;;5053427;28;20211;-61
2022/03/17 04:29:57;;;;;;;34.30;30.95;;;9.60;99.90;;;;;;5049880;28;20258;-61
2022/03/17 04:32:25;;;;;;;32.85;29.75;;;9.70;99.90;;;;;;5050080;28;20314;-60
2022/03/17 04:34:53;;;;;;;33.78;30.73;;;9.70;99.90;;;;;;5051258;28;20255;-61
2022/03/17 04:37:22;;;;;;;35.28;31.85;;;9.80;99.90;;;;;;5049070;28;20200;-62
2022/03/17 04:39:50;;;;;;;32.15;29.13;;;9.70;99.90;;;;;;5047997;28;20232;-60
2022/03/17 04:42:17;;;;;;;32.97;29.63;;;9.70;99.90;;;;;;5047695;28;20263;-61
2022/03/17 04:44:45;;;;;;;33.72;30.40;;;9.60;99.90;;;;;;5050134;28;20227;-62
2022/03/17 04:47:13;;;;;;;35.13;31.83;;;9.60;99.90;;;;;;5050164;28;20294;-62
2022/03/17 04:49:41;;;;;;;34.58;31.20;;;9.50;99.90;;;;;;5049646;28;20699;-62
2022/03/17 04:53:26;;;;;;;35.33;31.92;;;9.50;99.90;;;;;;5049181;28;20330;-61
2022/03/17 04:54:59;;;;;;;37.97;34.33;;;9.50;99.90;;;;;;5050439;28;20891;-62
2022/03/17 04:57:27;;;;;;;35.30;31.98;;;9.50;99.90;;;;;;5056370;28;20279;-61
2022/03/17 04:59:55;;;;;;;35.03;31.83;;;9.50;99.90;;;;;;5056718;28;20291;-61
2022/03/17 05:02:23;;;;;;;36.20;32.55;;;9.60;99.90;;;;;;5051729;28;20306;-61
2022/03/17 05:04:52;;;;;;;33.45;30.25;;;9.60;99.90;;;;;;5053995;28;20676;-61
2022/03/17 05:07:20;;;;;;;32.72;29.48;;;9.50;99.90;;;;;;5052226;28;20211;-61
2022/03/17 05:09:48;;;;;;;36.50;32.60;;;9.60;99.90;;;;;;5053580;28;20253;-61
2022/03/17 05:12:17;;;;;;;30.45;27.60;;;9.50;99.90;;;;;;5052370;28;20306;-62
2022/03/17 05:14:45;;;;;;;33.83;30.60;;;9.50;99.90;;;;;;5052878;28;20688;-61
2022/03/17 05:17:13;;;;;;;30.70;27.58;;;9.60;99.90;;;;;;5053271;28;20224;-62
2022/03/17 05:19:41;;;;;;;28.33;25.73;;;9.70;99.90;;;;;;5053634;28;20287;-61
2022/03/17 05:22:09;;;;;;;35.13;31.63;;;9.90;99.90;;;;;;5052371;28;20273;-61
2022/03/17 05:24:37;;;;;;;35.33;31.92;;;10.00;99.90;;;;;;5052762;28;20290;-61
2022/03/17 05:27:05;;;;;;;34.80;31.33;;;9.80;99.90;;;;;;5049119;28;20227;-60
2022/03/17 05:29:34;;;;;;;34.30;31.00;;;9.70;99.90;;;;;;5052031;28;20282;-62
2022/03/17 05:32:02;;;;;;;33.55;30.33;;;9.50;99.90;;;;;;5052537;28;20311;-62
2022/03/17 05:34:32;;;;;;;32.05;28.95;;;9.50;99.90;;;;;;5053154;28;20203;-61
2022/03/17 05:37:00;;;;;;;34.13;30.70;;;9.60;99.90;;;;;;5052802;28;20274;-61
2022/03/17 05:39:28;;;;;;;30.80;27.80;;;9.50;99.90;;;;;;5047630;28;20721;-61
2022/03/17 05:41:56;;;;;;;35.47;32.13;;;9.60;99.90;;;;;;5042057;28;20223;-62
2022/03/17 05:44:24;;;;;;;38.55;34.88;;;9.60;99.90;;;;;;5046071;28;20295;-60
2022/03/17 05:46:54;;;;;;;32.95;29.85;;;9.50;99.90;;;;;;5047496;28;20285;-62
2022/03/17 05:49:22;;;;;;;32.95;29.85;;;9.40;99.90;;;;;;5047680;28;20236;-61
2022/03/17 05:51:50;;;;;;;34.70;31.27;;;9.40;99.90;;;;;;5046413;28;20295;-61
2022/03/17 05:54:18;;;;;;;31.95;28.77;;;9.40;99.90;;;;;;5045709;28;20215;-62
2022/03/17 05:56:45;;;;;;;35.38;32.00;;;9.50;99.90;;;;;;5048705;28;20296;-62
2022/03/17 05:59:13;;;;;;;34.65;31.33;;;9.60;99.90;;;;;;5052457;28;20204;-61
2022/03/17 06:01:41;;;;;;;30.50;27.52;;;9.50;99.90;;;;;;5046337;28;20310;-62
2022/03/17 06:04:30;;;;;;;29.63;26.92;;;9.50;99.90;;;;;;5046342;28;20216;-61
2022/03/17 06:06:58;;;;;;;35.67;32.38;;;9.50;99.90;;;;;;5046594;28;20203;-62
2022/03/17 06:09:26;;;;;;;34.95;31.65;;;9.30;99.90;;;;;;5046500;28;20231;-61
2022/03/17 06:11:55;;;;;;;35.10;31.83;;;9.20;99.90;;;;;;5048028;28;20224;-61
2022/03/17 06:14:26;;;;;;;35.28;31.98;;;9.10;99.90;;;;;;5046867;28;20282;-61
2022/03/17 06:16:54;;;;;;;34.35;31.08;;;9.10;99.90;;;;;;5045294;28;20232;-61
2022/03/17 06:19:22;;;;;;;35.25;31.75;;;9.20;99.90;;;;;;5047070;28;20226;-62
2022/03/17 06:21:52;;;;;;;34.42;31.02;;;9.20;99.90;;;;;;5046357;28;20208;-61
2022/03/17 06:24:20;;;;;;;31.08;28.02;;;9.30;99.90;;;;;;5048075;28;20207;-61
2022/03/17 06:26:47;;;;;;;35.70;32.17;;;9.30;99.90;;;;;;5048926;28;20203;-62
2022/03/17 06:29:15;;;;;;;30.23;27.42;;;9.30;99.90;;;;;;5047433;28;20365;-62
2022/03/17 06:31:43;;;;;;;35.35;31.63;;;9.40;99.90;;;;;;5044015;28;20873;-61
2022/03/17 06:34:12;;;;;;;34.03;30.67;;;9.70;99.90;;;;;;5045774;28;20203;-61
2022/03/17 06:36:39;;;;;;;31.73;28.73;;;9.70;99.90;;;;;;5046152;28;20210;-62
2022/03/17 06:39:09;;;;;;;34.08;30.88;;;9.80;99.90;;;;;;5046412;28;21037;-61
2022/03/17 06:41:36;;;;;;;35.70;32.33;;;9.70;99.90;;;;;;5046070;28;20627;-62
2022/03/17 06:44:05;;;;;;;34.58;31.38;;;9.70;99.90;;;;;;5042446;28;20215;-63
2022/03/17 06:46:33;;;;;;;32.25;28.80;;;9.60;99.90;;;;;;5044395;28;20220;-62
2022/03/17 06:49:00;;;;;;;30.75;27.80;;;9.50;99.90;;;;;;5045726;28;20242;-61
2022/03/17 06:51:28;;;;;;;33.13;29.70;;;9.60;99.90;;;;;;5046195;28;20261;-61
2022/03/17 06:53:56;;;;;;;33.10;30.15;;;9.70;99.90;;;;;;5046915;28;20311;-61
2022/03/17 06:56:25;;;;;;;33.90;30.73;;;9.80;99.90;;;;;;5050610;28;20834;-61
2022/03/17 06:58:53;;;;;;;35.75;32.38;;;9.80;99.90;;;;;;5049735;28;20274;-62
2022/03/17 07:01:21;;;;;;;32.38;28.92;;;9.70;99.90;;;;;;5044690;28;20223;-61
2022/03/17 07:03:49;;;;;;;31.83;28.73;;;9.70;99.90;;;;;;5044411;28;20236;-61
2022/03/17 07:06:17;;;;;;;33.15;29.70;;;9.60;99.90;;;;;;5046237;28;20249;-61
2022/03/17 07:08:45;;;;;;;33.45;30.15;;;9.80;99.90;;;;;;5046826;28;20283;-61
2022/03/17 07:11:13;;;;;;;32.45;29.45;;;9.70;99.90;;;;;;5045247;28;20204;-62
2022/03/17 07:13:42;;;;;;;33.58;30.38;;;9.70;99.90;;;;;;5046929;28;20371;-61
2022/03/17 07:16:10;;;;;;;34.83;31.33;;;9.60;99.90;;;;;;5044265;28;20893;-62
2022/03/17 07:18:38;;;;;;;32.80;29.80;;;9.70;99.90;;;;;;5045570;28;20200;-61
2022/03/17 07:21:07;;;;;;;33.40;30.20;;;9.70;99.90;;;;;;5045789;28;20303;-62
2022/03/17 07:23:34;;;;;;;32.58;29.58;;;9.80;99.90;;;;;;5046351;28;20305;-61
2022/03/17 07:26:03;;;;;;;31.60;28.63;;;9.80;99.90;;;;;;5048592;28;20290;-61
2022/03/17 07:28:31;;;;;;;30.67;27.67;;;9.90;99.90;;;;;;5057728;28;20287;-62
2022/03/17 07:31:00;;;;;;;30.40;27.40;;;10.00;99.90;;;;;;5050650;28;20556;-62
2022/03/17 07:33:28;;;;;;;32.45;29.38;;;10.20;99.90;;;;;;5051779;28;20303;-62
2022/03/17 07:35:56;;;;;;;31.25;28.25;;;10.20;99.90;;;;;;5051982;28;20235;-62
2022/03/17 07:38:24;;;;;;;32.40;29.35;;;10.10;99.90;;;;;;5051834;28;20618;-62
2022/03/17 07:40:51;;;;;;;33.30;30.13;;;10.20;99.90;;;;;;5051771;28;20295;-62
2022/03/17 07:43:19;;;;;;;30.58;27.73;;;10.20;99.90;;;;;;5051530;28;20318;-62
2022/03/17 07:45:47;;;;;;;32.15;28.83;;;10.20;99.90;;;;;;5051564;28;20681;-62
2022/03/17 07:48:16;;;;;;;32.80;29.27;;;10.30;99.90;;;;;;5051678;28;20302;-61
2022/03/17 07:50:44;;;;;;;29.17;26.27;;;10.30;99.90;;;;;;5051817;28;20286;-62
2022/03/17 07:53:12;;;;;;;31.30;28.40;;;10.40;99.90;;;;;;5051438;28;20684;-62
2022/03/17 07:55:42;;;;;;;32.70;29.42;;;10.40;99.90;;;;;;5051449;28;20218;-62
2022/03/17 07:58:11;;;;;;;32.83;29.70;;;10.30;99.90;;;;;;5049826;28;20283;-62
2022/03/17 08:00:39;;;;;;;29.50;26.48;;;10.30;99.90;;;;;;5051333;28;20231;-62
2022/03/17 08:03:07;;;;;;;33.45;30.33;;;10.30;99.90;;;;;;5050995;28;20239;-62
2022/03/17 08:05:37;;;;;;;30.23;27.38;;;10.30;99.90;;;;;;5051470;28;20560;-62
2022/03/17 08:08:05;;;;;;;32.70;29.65;;;10.50;99.90;;;;;;5051347;28;20628;-62
2022/03/17 08:10:32;;;;;;;33.22;30.08;;;10.50;99.90;;;;;;5051429;28;20295;-63
2022/03/17 08:13:02;;;;;;;31.50;28.35;;;10.60;99.90;;;;;;5051030;28;20298;-62
2022/03/17 08:15:30;;;;;;;33.63;30.42;;;10.70;99.90;;;;;;5051369;28;20204;-62
2022/03/17 08:17:58;;;;;;;31.45;28.02;;;10.70;99.90;;;;;;5051129;28;20576;-62
2022/03/17 08:20:26;;;;;;;34.85;31.55;;;10.70;99.90;;;;;;5051342;28;20235;-62
2022/03/17 08:22:55;;;;;;;33.20;29.60;;;10.80;99.90;;;;;;5050985;28;20254;-63
2022/03/17 08:25:24;;;;;;;32.30;29.20;;;10.80;99.90;;;;;;5051280;28;20302;-61
2022/03/17 08:27:52;;;;;;;32.55;29.55;;;10.70;99.90;;;;;;5050765;28;20196;-62
2022/03/17 08:30:20;;;;;;;34.40;30.27;;;10.70;99.90;;;;;;5050703;28;20243;-62
2022/03/17 08:32:48;;;;;;;32.63;29.50;;;10.70;99.90;;;;;;5050972;28;20252;-62
2022/03/17 08:35:17;;;;;;;31.40;28.42;;;10.70;99.90;;;;;;5051162;28;20282;-63
2022/03/17 08:37:46;;;;;;;33.15;29.63;;;10.70;99.90;;;;;;5050822;28;20227;-62
2022/03/17 08:40:16;;;;;;;34.88;31.45;;;10.70;99.90;;;;;;5051128;28;20746;-62
2022/03/17 08:42:44;;;;;;;33.72;30.42;;;10.80;99.90;;;;;;5050678;28;20258;-62
2022/03/17 08:50:45;;;;;;;31.50;28.50;;;10.80;99.90;;;;;;5051345;28;20580;-62
2022/03/17 08:53:13;;;;;;;32.55;29.25;;;11.00;99.90;;;;;;5050328;28;20252;-62
2022/03/17 08:55:42;;;;;;;29.20;26.35;;;11.00;99.90;;;;;;5050988;28;20231;-63
2022/03/17 08:58:10;;;;;;;28.08;25.50;;;11.10;99.90;;;;;;5052359;28;20235;-62
2022/03/17 09:00:40;;;;;;;33.67;30.38;;;11.00;99.90;;;;;;5050672;28;20278;-62
2022/03/17 09:03:08;;;;;;;30.55;27.75;;;10.90;99.90;;;;;;5049757;28;20663;-62
2022/03/17 09:05:37;;;;;;;30.40;27.50;;;10.90;99.90;;;;;;5051105;28;20569;-62
2022/03/17 09:08:07;;;;;;;33.53;30.42;;;11.00;99.90;;;;;;5050635;28;20261;-62
2022/03/17 09:10:35;;;;;;;34.10;30.98;;;11.10;99.90;;;;;;5050929;28;20211;-62
2022/03/17 09:13:07;;;;;;;31.63;28.65;;;11.10;99.90;;;;;;5050101;28;20299;-62
2022/03/17 09:15:36;;;;;;;31.77;28.77;;;11.10;99.90;;;;;;5050518;28;20239;-62
2022/03/17 09:18:06;;;;;;;33.85;30.58;;;11.00;99.90;;;;;;5050683;28;20209;-62
2022/03/17 09:20:34;;;;;;;30.50;27.50;;;11.10;99.90;;;;;;5050739;28;20260;-62
2022/03/17 09:23:02;;;;;;;34.03;30.40;;;11.10;99.90;;;;;;5049919;28;20651;-62
2022/03/17 09:25:33;;;;;;;33.28;30.08;;;11.00;99.90;;;;;;5050378;28;20204;-63
2022/03/17 09:28:01;;;;;;;33.42;29.83;;;11.00;99.90;;;;;;5050234;28;20250;-61
2022/03/17 09:30:31;;;;;;;28.40;25.70;;;11.00;99.90;;;;;;5045968;28;20295;-63
2022/03/17 09:33:01;;;;;;;33.53;30.25;;;11.00;99.90;;;;;;5043931;28;20268;-62
2022/03/17 09:35:29;;;;;;;34.72;31.52;;;10.90;99.90;;;;;;5050622;28;20223;-62
2022/03/17 09:37:57;;;;;;;32.85;29.83;;;10.90;99.90;;;;;;5049908;28;20231;-63
2022/03/17 09:40:25;;;;;;;33.30;30.02;;;10.90;99.90;;;;;;5050330;28;20200;-62
2022/03/17 09:43:18;;;;;;;31.83;28.67;;;10.90;99.90;;;;;;5053242;28;20255;-63
2022/03/17 09:45:45;;;;;;;30.13;26.98;;;10.90;99.90;;;;;;5054064;28;20208;-62
2022/03/17 09:48:14;;;;;;;33.63;30.17;;;11.00;99.90;;;;;;5053769;28;20226;-62
2022/03/17 09:50:44;;;;;;;33.40;30.30;;;11.10;99.90;;;;;;5053967;28;20196;-63
2022/03/17 09:53:12;;;;;;;31.33;28.42;;;11.10;99.90;;;;;;5053630;28;20254;-62
2022/03/17 09:55:43;;;;;;;32.60;29.45;;;11.10;99.90;;;;;;5053980;28;20234;-62
2022/03/17 09:58:12;;;;;;;32.97;29.95;;;11.20;99.90;;;;;;5054122;28;20669;-63
2022/03/17 10:00:52;;;;;;;29.67;26.92;;;11.20;99.90;;;;;;5053721;28;20304;-62
2022/03/17 10:03:25;;;;;;;33.10;30.05;;;11.30;99.90;;;;;;5052923;28;20239;-63
2022/03/17 10:05:54;;;;;;;33.15;30.30;;;11.40;99.90;;;;;;5053773;28;20204;-62
2022/03/17 10:08:23;;;;;;;33.42;30.15;;;11.40;99.90;;;;;;5053483;28;20581;-63
2022/03/17 10:10:52;;;;;;;30.42;27.52;;;11.30;99.90;;;;;;5053211;28;20200;-62
2022/03/17 10:13:22;;;;;;;26.80;24.20;;;11.40;99.90;;;;;;5053146;28;20224;-62
2022/03/17 10:16:07;;;;;;;26.35;23.55;;;11.50;99.90;;;;;;5053492;28;20657;-62
2022/03/17 10:18:38;;;;;;;28.77;26.02;;;11.70;99.90;;;;;;5053310;28;20204;-62
2022/03/17 10:21:08;;;;;;;27.55;24.85;;;11.90;99.90;;;;;;5053192;28;20730;-62
2022/03/17 10:23:43;;;;;;;27.17;24.75;;;12.20;99.90;;;;;;5052994;28;20253;-62
2022/03/17 10:26:11;;;;;;;27.08;24.50;;;12.30;99.90;;;;;;5053338;28;20326;-63
2022/03/17 10:28:40;;;;;;;31.17;28.27;;;12.50;99.90;;;;;;5052522;28;20238;-62
2022/03/17 10:31:09;;;;;;;30.52;26.98;;;12.50;99.90;;;;;;5053308;28;20295;-62
2022/03/17 10:33:38;;;;;;;32.97;29.85;;;12.30;99.90;;;;;;5052753;28;20224;-62
2022/03/17 10:36:19;;;;;;;32.13;28.63;;;12.30;99.90;;;;;;5046785;28;20279;-62
2022/03/17 10:38:48;;;;;;;35.75;32.17;;;12.30;99.90;;;;;;5052942;28;20204;-62
2022/03/17 10:41:17;;;;;;;31.58;28.33;;;12.40;99.90;;;;;;5052914;28;20748;-63
2022/03/17 10:43:45;;;;;;;33.20;29.90;;;12.40;99.90;;;;;;5052321;28;20245;-62
2022/03/17 10:46:16;;;;;;;32.80;29.70;;;12.30;99.90;;;;;;5052983;28;20287;-63
2022/03/17 10:48:56;;;;;;;35.03;31.63;;;12.00;99.90;;;;;;5052835;28;20196;-63
2022/03/17 10:51:38;;;;;;;36.15;32.55;;;12.00;99.90;;;;;;5052505;28;20326;-63
2022/03/17 10:54:08;;;;;;;37.47;33.80;;;12.00;99.90;;;;;;5052381;28;20287;-63
2022/03/17 10:56:37;;;;;;;36.13;31.80;;;11.80;99.90;;;;;;5052608;28;20200;-62
2022/03/17 10:59:07;;;;;;;37.47;33.92;;;11.70;99.90;;;;;;5046255;28;20590;-62
2022/03/17 11:01:50;;;;;;;38.78;35.20;;;11.70;99.90;;;;;;5048213;28;20204;-63
2022/03/17 11:04:21;;;;;;;38.03;34.33;;;11.60;99.90;;;;;;5053279;28;20212;-62
2022/03/17 11:06:54;;;;;;;35.15;31.67;;;11.40;99.90;;;;;;5052763;28;20691;-62
2022/03/17 11:09:23;;;;;;;34.03;30.73;;;11.20;99.90;;;;;;5052527;28;20231;-62
2022/03/17 11:11:51;;;;;;;34.72;31.42;;;10.80;99.90;;;;;;5052205;28;20684;-62
2022/03/17 11:14:21;;;;;;;33.70;30.35;;;10.70;99.90;;;;;;5052254;28;20238;-63
2022/03/17 11:16:51;;;;;;;33.90;30.30;;;10.50;99.90;;;;;;5052373;28;20287;-63
2022/03/17 11:19:23;;;;;;;35.13;31.55;;;10.40;99.90;;;;;;5052222;28;20211;-62
2022/03/17 11:22:05;;;;;;;32.80;29.45;;;10.30;99.90;;;;;;5052289;28;20223;-62
2022/03/17 11:24:33;;;;;;;35.70;31.83;;;10.20;99.90;;;;;;5046143;28;20230;-62
2022/03/17 11:27:12;;;;;;;37.95;34.00;;;10.20;99.90;;;;;;5054927;28;20703;-63
2022/03/17 11:29:45;;;;;;;32.50;29.20;;;10.10;99.90;;;;;;5052026;28;20231;-62
2022/03/17 11:32:28;;;;;;;30.25;27.17;;;10.30;99.90;;;;;;5052035;28;20259;-61
2022/03/17 11:35:09;;;;;;;35.83;32.08;;;10.50;99.90;;;;;;5052050;28;20294;-62
2022/03/17 11:37:37;;;;;;;34.88;31.17;;;10.30;99.90;;;;;;5052293;28;20238;-62
2022/03/17 11:40:08;;;;;;;31.00;27.70;;;10.10;99.90;;;;;;5051943;28;20232;-63
2022/03/17 11:42:39;;;;;;;35.45;27.88;;;9.90;99.90;;;;;;5045578;28;20231;-62
2022/03/17 11:45:42;;;;;;;34.30;27.67;;;9.80;99.90;;;;;;5052003;28;20208;-62
2022/03/17 11:48:13;;;;;;;35.88;29.83;;;9.90;99.90;;;;;;5051885;28;20286;-63
2022/03/17 11:50:48;;;;;;;34.60;28.25;;;9.70;99.90;;;;;;5051731;28;20575;-62
2022/03/17 11:53:21;;;;;;;33.78;28.23;;;9.90;99.90;;;;;;5045279;28;20220;-63
2022/03/17 11:55:52;;;;;;;29.42;26.42;;;10.00;99.90;;;;;;5051575;28;20238;-63
2022/03/17 11:58:34;;;;;;;30.95;27.75;;;9.90;99.90;;;;;;5051657;28;20463;-61
2022/03/17 12:01:05;;;;;;;30.55;27.25;;;9.90;99.90;;;;;;5051690;28;20238;-62
2022/03/17 12:03:38;;;;;;;29.63;26.63;;;9.90;99.90;;;;;;5050839;28;20246;-63
2022/03/17 12:06:13;;;;;;;29.67;25.90;;;10.00;99.90;;;;;;5051440;28;20266;-62
2022/03/17 12:08:43;;;;;;;29.42;25.58;;;9.90;99.90;;;;;;5051452;28;20202;-63
2022/03/17 12:11:13;;;;;;;28.45;25.40;;;10.00;99.90;;;;;;5051423;28;20196;-62
2022/03/17 12:13:41;;;;;;;30.48;27.38;;;10.20;99.90;;;;;;5051210;28;20315;-62
2022/03/17 12:16:13;;;;;;;28.30;25.45;;;10.20;99.90;;;;;;5051380;28;20622;-62
2022/03/17 12:19:03;;;;;;;27.13;24.60;;;10.20;99.90;;;;;;5045076;28;20310;-62
2022/03/17 12:22:08;;;;;;;28.35;25.45;;;10.10;99.90;;;;;;5048136;28;20198;-63
2022/03/17 12:24:40;;;;;;;28.83;25.83;;;10.10;99.90;;;;;;5051137;28;20234;-62
2022/03/17 12:27:14;;;;;;;29.77;26.55;;;9.90;99.90;;;;;;5053223;28;20218;-63
2022/03/17 12:29:43;;;;;;;29.08;26.38;;;9.70;99.90;;;;;;5050983;28;20257;-60
2022/03/17 12:32:12;;;;;;;28.38;25.77;;;9.40;99.90;;;;;;5050766;28;20302;-63
2022/03/17 12:34:40;;;;;;;28.98;26.10;;;9.40;99.90;;;;;;5051375;28;20329;-62
2022/03/17 12:37:08;;;;;;;29.75;26.63;;;9.40;99.90;;;;;;5051284;28;20242;-63
2022/03/17 12:39:39;;;;;;;26.73;24.02;;;9.40;99.90;;;;;;5050819;28;20245;-62
2022/03/17 12:42:17;;;;;;;27.77;25.15;;;9.40;99.90;;;;;;5051376;28;20242;-62
2022/03/17 12:44:50;;;;;;;25.45;23.02;;;9.60;99.90;;;;;;5051275;28;20203;-62
2022/03/17 12:47:20;;;;;;;27.27;24.52;;;9.70;99.90;;;;;;5051628;28;20227;-63
2022/03/17 12:49:49;;;;;;;25.05;22.73;;;9.70;99.90;;;;;;5050659;28;20235;-63
2022/03/17 12:52:20;;;;;;;25.27;22.40;;;9.80;99.90;;;;;;5050844;28;20307;-62
2022/03/17 12:54:54;;;;;;;22.77;20.63;;;9.60;99.90;;;;;;5045048;28;20231;-62
2022/03/17 12:57:23;;;;;;;26.38;21.48;;;9.30;99.90;;;;;;5050933;28;20291;-62
2022/03/17 12:59:51;;;;;;;23.13;20.67;;;9.30;99.90;;;;;;5050767;28;20250;-63
2022/03/17 13:02:20;;;;;;;21.42;19.33;;;9.20;99.90;;;;;;5050238;28;20243;-62